Hlavní strana
METAR-TAF:

METAR-TAF

Letiště :

Ørsta-Volda, Norsko

zeměpisná šířka: 62-11N, zeměpisná délka: 006-04E, výška: 7 m

Aktuální stav počasí

Zpráva byla vytvořena před 52 minutami, v 10:20 UTC
vítr z různých směrů 1 kt
Teplota -2°C
Vlhkost vzduchu 86%
Tlak 986 hPa
Viditelnost 10 km a více
Polojasno ve výšce 5500 ft

METAR: ENOV 291020Z VRB01KT 9999 SCT055 M02/M04 Q0986 RMK WIND 2175FT 15006KT

Čas: 12:12 (11:12 UTC)


TAF: chybějící

Stav a předpovědi počasí z více než 4 000 letišť (zprávy METAR a TAF).

Červené a žluté tečky na mapě představují dostupné meteorologické stanice.

Když kurzor umístíte na tečku, zobrazí se název stanice.

Pak kliknutím zobrazíte stav a předpověď počasí.

Chcete-li změnit mapu, kliknutím na zelené tlačítko se znaménkem +mapu přiblížíte, kliknutím na zelené tlačítko se znaménkem – mapu oddálíte a kliknutím na zelené šipky přejdete na sousední mapy.


METAR-TAF: